Silver Cloud — C6MQ5 — position and weather

sailwx.info

Track history (hours):
 
Tides and Currents Weather Stations Pressure Air Temp Water Temp Dewpoint Dewpoint Depression Visibility Wind Speed Wind Dir Waves Ship Positions

Silver Cloud

Operator: V Ships Leisure SAM

Last reported at 2018-Jun-18 21:10 UTC. Time now 2018-Jun-20 00:06 UTC.
Position N 70°41' E 020°44'.

Length 156 m; draft 5.7 m.

Type: Passenger vessel. MMSI: 309027000.

Date/timePositionNaut miles runAvg speedWind from/ knotsBaromVisibWave heightAir tempDewpointWater temp
2018-Jun-18 21:10N 70°41' E 020°44'316.9
2018-Jun-18 21:00N 70°39' E 020°45'916.8
2018-Jun-18 20:29N 70°30' E 020°45'817.2
2018-Jun-18 20:00N 70°22' E 020°36'917.7
2018-Jun-18 19:31N 70°14' E 020°25'1018.5
2018-Jun-18 18:59N 70°06' E 020°12'917.5
2018-Jun-18 18:30N 69°58' E 020°00'917.5
2018-Jun-18 18:00N 69°51' E 019°46'917.8
2018-Jun-18 17:30N 69°48' E 019°22'815.8
2018-Jun-18 17:01N 69°44' E 019°04'2 3.1
2018-Jun-18 16:28N 69°42' E 019°05'0 0.0
2018-Jun-18 15:58N 69°42' E 019°05'0 0.0
2018-Jun-18 15:29N 69°42' E 019°05'0 0.0
2018-Jun-18 14:58N 69°42' E 019°05'0 0.0
2018-Jun-18 14:28N 69°42' E 019°05'0 0.0
2018-Jun-18 13:58N 69°42' E 019°05'0 1.0
2018-Jun-18 13:30N 69°42' E 019°03'1 2.7
2018-Jun-18 13:00N 69°41' E 019°00'0 0.4
2018-Jun-18 12:29N 69°41' E 018°60'0 0.0
2018-Jun-18 11:59N 69°41' E 018°60'0 0.0
2018-Jun-18 11:29N 69°41' E 018°60'0 0.0
2018-Jun-18 10:59N 69°41' E 018°60'0 0.0
2018-Jun-18 10:29N 69°41' E 018°60'0 0.0
2018-Jun-18 09:59N 69°41' E 018°60'0 0.0
2018-Jun-18 09:29N 69°41' E 018°60'0 0.0
2018-Jun-18 08:59N 69°41' E 018°60'0 0.0
2018-Jun-18 08:26N 69°41' E 018°60'0 0.0
2018-Jun-18 07:59N 69°41' E 018°60'0 0.0
2018-Jun-18 07:29N 69°41' E 018°60'0 0.0
2018-Jun-18 06:59N 69°41' E 018°60'0 0.3
2018-Jun-18 06:30N 69°41' E 018°60'3 5.0
2018-Jun-18 06:00N 69°43' E 019°03'3 6.3
2018-Jun-18 05:30N 69°42' E 018°55'510.0
2018-Jun-18 05:00N 69°37' E 018°52'5 9.9
2018-Jun-18 04:29N 69°33' E 018°42'611.8
2018-Jun-18 04:00N 69°31' E 018°26'611.7
2018-Jun-18 03:30N 69°30' E 018°09'612.3
2018-Jun-18 03:00N 69°34' E 017°57'713.6
2018-Jun-18 02:30N 69°40' E 017°45'613.1
2018-Jun-18 02:00N 69°41' E 017°27'611.5
2018-Jun-18 01:30N 69°38' E 017°12'510.7
2018-Jun-18 01:00N 69°36' E 016°59'610.8
2018-Jun-18 00:28N 69°33' E 016°44'613.2
2018-Jun-18 00:00N 69°27' E 016°37'815.8
2018-Jun-17 23:30N 69°19' E 016°37'815.9
2018-Jun-17 23:00N 69°12' E 016°42'917.1
2018-Jun-17 22:30N 69°03' E 016°43'816.6
2018-Jun-17 22:00N 68°55' E 016°47'917.2
2018-Jun-17 21:30N 68°47' E 016°44'917.0
2018-Jun-17 21:00N 68°38' E 016°36'612.4
2018-Jun-17 20:30N 68°33' E 016°27'510.2
2018-Jun-17 20:00N 68°33' E 016°13'816.1
2018-Jun-17 19:30N 68°25' E 016°03'714.5
2018-Jun-17 19:00N 68°19' E 015°54'917.0
2018-Jun-17 18:30N 68°13' E 015°38'917.3
2018-Jun-17 18:00N 68°10' E 015°17'917.5
2018-Jun-17 17:30N 68°07' E 014°55'917.3
2018-Jun-17 17:00N 68°04' E 014°33'816.8
2018-Jun-17 16:30N 68°03' E 014°11'816.8
2018-Jun-17 16:00N 68°02' E 013°48'612.9
2018-Jun-17 15:29N 68°06' E 013°36'1 2.8
2018-Jun-17 15:00N 68°08' E 013°34'0 0.0
2018-Jun-17 14:30N 68°08' E 013°34'0 0.0
2018-Jun-17 14:00N 68°08' E 013°34'0 0.0
2018-Jun-17 13:30N 68°08' E 013°34'0 0.0
2018-Jun-17 13:00N 68°08' E 013°34'0 0.0
2018-Jun-17 12:30N 68°08' E 013°34'0 0.0
2018-Jun-17 12:00N 68°08' E 013°34'0 0.0
2018-Jun-17 11:30N 68°08' E 013°34'0 0.0
2018-Jun-17 11:00N 68°08' E 013°34'0 0.0
2018-Jun-17 10:30N 68°08' E 013°34'0 0.0
2018-Jun-17 10:00N 68°08' E 013°34'0 0.0
2018-Jun-17 09:30N 68°08' E 013°34'0 0.0
2018-Jun-17 09:00N 68°08' E 013°34'0 0.0
2018-Jun-17 08:30N 68°08' E 013°34'0 0.0
2018-Jun-17 08:00N 68°08' E 013°34'0 0.0
2018-Jun-17 07:30N 68°08' E 013°34'0 0.0
2018-Jun-17 07:00N 68°08' E 013°34'0 0.5
2018-Jun-17 06:29N 68°07' E 013°34'5 9.8
2018-Jun-17 05:59N 68°02' E 013°35'510.0
2018-Jun-17 05:30N 67°58' E 013°29'612.2
2018-Jun-17 05:00N 67°53' E 013°20'612.4
2018-Jun-17 04:30N 67°48' E 013°12'612.4
2018-Jun-17 03:59N 67°42' E 013°03'612.4
2018-Jun-17 03:31N 67°37' E 012°54'612.4
2018-Jun-17 02:59N 67°32' E 012°45'611.9
2018-Jun-17 02:30N 67°27' E 012°37'4311.5
2018-Jun-16 22:43N 66°50' E 011°39'312.3
2018-Jun-16 22:28N 66°47' E 011°35'612.5
2018-Jun-16 22:00N 66°42' E 011°27'713.0
2018-Jun-16 21:29N 66°37' E 011°18'612.8
2018-Jun-16 21:00N 66°31' E 011°10'25212.7
2018-Jun-16 01:15N 62°58' E 005°60'312.9
2018-Jun-16 01:00N 62°55' E 005°56'712.7
2018-Jun-16 00:30N 62°49' E 005°48'612.4
2018-Jun-16 00:00N 62°44' E 005°41'713.4
2018-Jun-15 23:30N 62°38' E 005°34'815.1
2018-Jun-15 22:59N 62°31' E 005°40'714.6
2018-Jun-15 22:30N 62°28' E 005°53'612.5
2018-Jun-15 22:00N 62°24' E 006°04'714.0
2018-Jun-15 21:30N 62°24' E 006°19'814.9
2018-Jun-15 20:59N 62°26' E 006°35'714.5
2018-Jun-15 20:30N 62°27' E 006°50'713.9
2018-Jun-15 20:00N 62°20' E 006°57'814.6
2018-Jun-15 19:29N 62°13' E 007°01'714.0
2018-Jun-15 18:58N 62°06' E 006°59'4 7.4
2018-Jun-15 18:29N 62°07' E 007°07'0 0.2
2018-Jun-15 17:59N 62°07' E 007°07'0 0.4
2018-Jun-15 17:30N 62°07' E 007°07'2 4.2
2018-Jun-15 17:00N 62°06' E 007°11'0 0.0
2018-Jun-15 16:30N 62°06' E 007°11'0 0.0
2018-Jun-15 16:00N 62°06' E 007°11'0 0.0
2018-Jun-15 15:30N 62°06' E 007°11'0 0.0
2018-Jun-15 15:00N 62°06' E 007°11'0 0.0
2018-Jun-15 14:30N 62°06' E 007°11'0 0.0
2018-Jun-15 14:00N 62°06' E 007°11'0 0.0
2018-Jun-15 13:30N 62°06' E 007°11'0 0.0
2018-Jun-15 13:00N 62°06' E 007°11'0 0.0
2018-Jun-15 12:30N 62°06' E 007°11'0 0.0
2018-Jun-15 12:00N 62°06' E 007°11'0 0.1
2018-Jun-15 11:30N 62°06' E 007°11'0 0.0
2018-Jun-15 11:00N 62°06' E 007°11'0 0.0
2018-Jun-15 10:30N 62°06' E 007°11'0 0.0
2018-Jun-15 10:00N 62°06' E 007°11'3 6.0
2018-Jun-15 09:30N 62°06' E 007°05'4 8.4
2018-Jun-15 08:59N 62°09' E 006°59'612.1
2018-Jun-15 08:29N 62°15' E 007°01'611.9
2018-Jun-15 08:00N 62°20' E 006°57'611.9
2018-Jun-15 07:30N 62°26' E 006°53'612.6
2018-Jun-15 07:00N 62°27' E 006°39'713.8
2018-Jun-15 06:30N 62°25' E 006°25'714.3
2018-Jun-15 06:00N 62°23' E 006°10'612.4
2018-Jun-15 05:30N 62°27' E 005°59'510.4
2018-Jun-15 04:59N 62°27' E 005°48'510.3
2018-Jun-15 04:30N 62°27' E 005°37'611.1
2018-Jun-15 04:00N 62°26' E 005°25'612.9
2018-Jun-15 03:30N 62°24' E 005°12'713.8
2018-Jun-15 03:00N 62°22' E 004°57'29310.1
2018-Jun-13 21:49N 59°02' W 002°21'411.9
2018-Jun-13 21:30N 59°00' W 002°28'611.2
2018-Jun-13 21:00N 58°60' W 002°38'611.8
2018-Jun-13 20:30N 59°01' W 002°50'4 8.9
2018-Jun-13 20:00N 59°00' W 002°58'0 0.2
2018-Jun-13 19:29N 59°00' W 002°59'0 0.0
2018-Jun-13 18:59N 59°00' W 002°59'0 0.0
2018-Jun-13 18:29N 59°00' W 002°59'0 0.0
2018-Jun-13 17:59N 59°00' W 002°59'0 0.0
2018-Jun-13 17:29N 59°00' W 002°59'0 0.0
2018-Jun-13 16:59N 59°00' W 002°59'0 0.0
2018-Jun-13 16:29N 59°00' W 002°59'0 0.0
2018-Jun-13 15:59N 59°00' W 002°59'0 0.0
2018-Jun-13 15:29N 59°00' W 002°59'0 0.0
2018-Jun-13 14:59N 59°00' W 002°59'0 0.0
2018-Jun-13 14:29N 59°00' W 002°59'0 0.0
2018-Jun-13 13:47N 59°00' W 002°59'0 0.0
2018-Jun-13 13:29N 59°00' W 002°59'0 0.0
2018-Jun-13 12:59N 59°00' W 002°59'0 0.0
2018-Jun-13 12:29N 59°00' W 002°59'0 0.0
2018-Jun-13 11:59N 59°00' W 002°59'0 0.0
2018-Jun-13 11:29N 59°00' W 002°59'0 0.5
2018-Jun-13 11:00N 59°00' W 002°58'4 7.1
2018-Jun-13 10:30N 59°01' W 002°51'611.6
2018-Jun-13 10:00N 58°60' W 002°40'9016.2
2018-Jun-13 04:29N 57°37' W 001°35'919.0
2018-Jun-13 04:00N 57°28' W 001°35'1418.6
2018-Jun-13 03:15N 57°14' W 001°40'518.0
2018-Jun-13 03:00N 57°10' W 001°42'917.8
2018-Jun-13 02:30N 57°01' W 001°46'6315.3
2018-Jun-12 22:23N 56°07' W 002°46'615.9
2018-Jun-12 22:00N 56°05' W 002°56'713.6
2018-Jun-12 21:31N 56°02' W 003°06'4 7.1
2018-Jun-12 21:00N 55°59' W 003°11'0 0.1
2018-Jun-12 20:30N 55°59' W 003°11'0 0.0
2018-Jun-12 20:00N 55°59' W 003°11'0 0.0
2018-Jun-11 11:22N 55°59' W 003°11'0 0.9
2018-Jun-11 10:56N 55°59' W 003°11'0 0.1
2018-Jun-11 10:22N 55°59' W 003°11'1 2.4
2018-Jun-11 09:57N 56°00' W 003°12'1 2.1
2018-Jun-11 09:30N 56°01' W 003°10'2 4.4
2018-Jun-11 09:00N 56°01' W 003°06'5 9.7
2018-Jun-11 08:30N 56°04' W 002°59'611.8
2018-Jun-11 08:00N 56°06' W 002°50'612.5
2018-Jun-11 07:30N 56°07' W 002°39'612.8
2018-Jun-11 07:00N 56°10' W 002°28'5212.5
2018-Jun-11 02:48N 56°57' W 001°47'413.7
2018-Jun-11 02:30N 57°01' W 001°46'713.5
2018-Jun-11 02:00N 57°08' W 001°43'714.3
2018-Jun-11 01:30N 57°14' W 001°40'1215.1
2018-Jun-11 00:44N 57°26' W 001°36'415.8
2018-Jun-11 00:30N 57°29' W 001°36'9514.6
2018-Jun-10 17:59N 58°59' W 002°36'816.3
2018-Jun-10 17:30N 59°01' W 002°51'4 7.8
2018-Jun-10 17:00N 59°00' W 002°58'0 0.0
2018-Jun-10 16:29N 59°00' W 002°59'0 0.0
2018-Jun-10 15:59N 59°00' W 002°59'0 0.0
2018-Jun-10 15:29N 59°00' W 002°59'0 0.0
2018-Jun-10 14:59N 59°00' W 002°59'0 0.0
2018-Jun-10 14:29N 59°00' W 002°59'0 0.0
2018-Jun-10 13:29N 59°00' W 002°59'0 0.0
2018-Jun-10 12:59N 59°00' W 002°59'0 0.0
2018-Jun-10 12:29N 59°00' W 002°58'0 0.0
2018-Jun-10 11:59N 59°00' W 002°58'0 0.0
2018-Jun-10 11:29N 59°00' W 002°58'0 0.0
2018-Jun-10 10:59N 59°00' W 002°58'0 0.0
2018-Jun-10 10:29N 59°00' W 002°58'0 0.0
2018-Jun-10 09:59N 59°00' W 002°59'0 0.0
2018-Jun-10 09:29N 59°00' W 002°58'0 0.0
2018-Jun-10 08:59N 59°00' W 002°58'0 0.0
2018-Jun-10 08:29N 59°00' W 002°58'0 0.0
2018-Jun-10 07:59N 59°00' W 002°58'0 0.5
2018-Jun-10 07:29N 59°00' W 002°59'3 6.5
2018-Jun-10 07:00N 59°01' W 002°53'510.8
2018-Jun-10 06:30N 58°60' W 002°42'5 9.0
2018-Jun-10 06:00N 58°58' W 002°34'810.5
2018-Jun-10 05:17N 58°51' W 002°39'913.8
2018-Jun-10 04:37N 58°43' W 002°48'215.1
2018-Jun-10 04:30N 58°42' W 002°51'917.3
2018-Jun-10 04:00N 58°43' W 003°08'915.6
2018-Jun-10 03:27N 58°43' W 003°24'6012.7
2018-Jun-09 22:41N 58°32' W 005°18'  
Track history (hours):
 
Tides and Currents Weather Stations Pressure Air Temp Water Temp Dewpoint Dewpoint Depression Visibility Wind Speed Wind Dir Waves Ship Positions

Silver Cloud

Operator: V Ships Leisure SAM

Last reported at 2018-Jun-18 21:10 UTC. Time now 2018-Jun-20 00:06 UTC.
Position N 70°41' E 020°44'.

Length 156 m; draft 5.7 m.

Type: Passenger vessel. MMSI: 309027000.

Date/timePositionNaut miles runAvg speedWind from/ knotsBaromVisibWave heightAir tempDewpointWater temp
2018-Jun-18 21:10N 70°41' E 020°44'316.9
2018-Jun-18 21:00N 70°39' E 020°45'916.8
2018-Jun-18 20:29N 70°30' E 020°45'817.2
2018-Jun-18 20:00N 70°22' E 020°36'917.7
2018-Jun-18 19:31N 70°14' E 020°25'1018.5
2018-Jun-18 18:59N 70°06' E 020°12'917.5
2018-Jun-18 18:30N 69°58' E 020°00'917.5
2018-Jun-18 18:00N 69°51' E 019°46'917.8
2018-Jun-18 17:30N 69°48' E 019°22'815.8
2018-Jun-18 17:01N 69°44' E 019°04'2 3.1
2018-Jun-18 16:28N 69°42' E 019°05'0 0.0
2018-Jun-18 15:58N 69°42' E 019°05'0 0.0
2018-Jun-18 15:29N 69°42' E 019°05'0 0.0
2018-Jun-18 14:58N 69°42' E 019°05'0 0.0
2018-Jun-18 14:28N 69°42' E 019°05'0 0.0
2018-Jun-18 13:58N 69°42' E 019°05'0 1.0
2018-Jun-18 13:30N 69°42' E 019°03'1 2.7
2018-Jun-18 13:00N 69°41' E 019°00'0 0.4
2018-Jun-18 12:29N 69°41' E 018°60'0 0.0
2018-Jun-18 11:59N 69°41' E 018°60'0 0.0
2018-Jun-18 11:29N 69°41' E 018°60'0 0.0
2018-Jun-18 10:59N 69°41' E 018°60'0 0.0
2018-Jun-18 10:29N 69°41' E 018°60'0 0.0
2018-Jun-18 09:59N 69°41' E 018°60'0 0.0
2018-Jun-18 09:29N 69°41' E 018°60'0 0.0
2018-Jun-18 08:59N 69°41' E 018°60'0 0.0
2018-Jun-18 08:26N 69°41' E 018°60'0 0.0
2018-Jun-18 07:59N 69°41' E 018°60'0 0.0
2018-Jun-18 07:29N 69°41' E 018°60'0 0.0
2018-Jun-18 06:59N 69°41' E 018°60'0 0.3
2018-Jun-18 06:30N 69°41' E 018°60'3 5.0
2018-Jun-18 06:00N 69°43' E 019°03'3 6.3
2018-Jun-18 05:30N 69°42' E 018°55'510.0
2018-Jun-18 05:00N 69°37' E 018°52'5 9.9
2018-Jun-18 04:29N 69°33' E 018°42'611.8
2018-Jun-18 04:00N 69°31' E 018°26'611.7
2018-Jun-18 03:30N 69°30' E 018°09'612.3
2018-Jun-18 03:00N 69°34' E 017°57'713.6
2018-Jun-18 02:30N 69°40' E 017°45'613.1
2018-Jun-18 02:00N 69°41' E 017°27'611.5
2018-Jun-18 01:30N 69°38' E 017°12'510.7
2018-Jun-18 01:00N 69°36' E 016°59'610.8
2018-Jun-18 00:28N 69°33' E 016°44'613.2
2018-Jun-18 00:00N 69°27' E 016°37'815.8
2018-Jun-17 23:30N 69°19' E 016°37'815.9
2018-Jun-17 23:00N 69°12' E 016°42'917.1
2018-Jun-17 22:30N 69°03' E 016°43'816.6
2018-Jun-17 22:00N 68°55' E 016°47'917.2
2018-Jun-17 21:30N 68°47' E 016°44'917.0
2018-Jun-17 21:00N 68°38' E 016°36'612.4
2018-Jun-17 20:30N 68°33' E 016°27'510.2
2018-Jun-17 20:00N 68°33' E 016°13'816.1
2018-Jun-17 19:30N 68°25' E 016°03'714.5
2018-Jun-17 19:00N 68°19' E 015°54'917.0
2018-Jun-17 18:30N 68°13' E 015°38'917.3
2018-Jun-17 18:00N 68°10' E 015°17'917.5
2018-Jun-17 17:30N 68°07' E 014°55'917.3
2018-Jun-17 17:00N 68°04' E 014°33'816.8
2018-Jun-17 16:30N 68°03' E 014°11'816.8
2018-Jun-17 16:00N 68°02' E 013°48'612.9
2018-Jun-17 15:29N 68°06' E 013°36'1 2.8
2018-Jun-17 15:00N 68°08' E 013°34'0 0.0
2018-Jun-17 14:30N 68°08' E 013°34'0 0.0
2018-Jun-17 14:00N 68°08' E 013°34'0 0.0
2018-Jun-17 13:30N 68°08' E 013°34'0 0.0
2018-Jun-17 13:00N 68°08' E 013°34'0 0.0
2018-Jun-17 12:30N 68°08' E 013°34'0 0.0
2018-Jun-17 12:00N 68°08' E 013°34'0 0.0
2018-Jun-17 11:30N 68°08' E 013°34'0 0.0
2018-Jun-17 11:00N 68°08' E 013°34'0 0.0
2018-Jun-17 10:30N 68°08' E 013°34'0 0.0
2018-Jun-17 10:00N 68°08' E 013°34'0 0.0
2018-Jun-17 09:30N 68°08' E 013°34'0 0.0
2018-Jun-17 09:00N 68°08' E 013°34'0 0.0
2018-Jun-17 08:30N 68°08' E 013°34'0 0.0
2018-Jun-17 08:00N 68°08' E 013°34'0 0.0
2018-Jun-17 07:30N 68°08' E 013°34'0 0.0
2018-Jun-17 07:00N 68°08' E 013°34'0 0.5
2018-Jun-17 06:29N 68°07' E 013°34'5 9.8
2018-Jun-17 05:59N 68°02' E 013°35'510.0
2018-Jun-17 05:30N 67°58' E 013°29'612.2
2018-Jun-17 05:00N 67°53' E 013°20'612.4
2018-Jun-17 04:30N 67°48' E 013°12'612.4
2018-Jun-17 03:59N 67°42' E 013°03'612.4
2018-Jun-17 03:31N 67°37' E 012°54'612.4
2018-Jun-17 02:59N 67°32' E 012°45'611.9
2018-Jun-17 02:30N 67°27' E 012°37'4311.5
2018-Jun-16 22:43N 66°50' E 011°39'312.3
2018-Jun-16 22:28N 66°47' E 011°35'612.5
2018-Jun-16 22:00N 66°42' E 011°27'713.0
2018-Jun-16 21:29N 66°37' E 011°18'612.8
2018-Jun-16 21:00N 66°31' E 011°10'25212.7
2018-Jun-16 01:15N 62°58' E 005°60'312.9
2018-Jun-16 01:00N 62°55' E 005°56'712.7
2018-Jun-16 00:30N 62°49' E 005°48'612.4
2018-Jun-16 00:00N 62°44' E 005°41'713.4
2018-Jun-15 23:30N 62°38' E 005°34'815.1
2018-Jun-15 22:59N 62°31' E 005°40'714.6
2018-Jun-15 22:30N 62°28' E 005°53'612.5
2018-Jun-15 22:00N 62°24' E 006°04'714.0
2018-Jun-15 21:30N 62°24' E 006°19'814.9
2018-Jun-15 20:59N 62°26' E 006°35'714.5
2018-Jun-15 20:30N 62°27' E 006°50'713.9
2018-Jun-15 20:00N 62°20' E 006°57'814.6
2018-Jun-15 19:29N 62°13' E 007°01'714.0
2018-Jun-15 18:58N 62°06' E 006°59'4 7.4
2018-Jun-15 18:29N 62°07' E 007°07'0 0.2
2018-Jun-15 17:59N 62°07' E 007°07'0 0.4
2018-Jun-15 17:30N 62°07' E 007°07'2 4.2
2018-Jun-15 17:00N 62°06' E 007°11'0 0.0
2018-Jun-15 16:30N 62°06' E 007°11'0 0.0
2018-Jun-15 16:00N 62°06' E 007°11'0 0.0
2018-Jun-15 15:30N 62°06' E 007°11'0 0.0
2018-Jun-15 15:00N 62°06' E 007°11'0 0.0
2018-Jun-15 14:30N 62°06' E 007°11'0 0.0
2018-Jun-15 14:00N 62°06' E 007°11'0 0.0
2018-Jun-15 13:30N 62°06' E 007°11'0 0.0
2018-Jun-15 13:00N 62°06' E 007°11'0 0.0
2018-Jun-15 12:30N 62°06' E 007°11'0 0.0
2018-Jun-15 12:00N 62°06' E 007°11'0 0.1
2018-Jun-15 11:30N 62°06' E 007°11'0 0.0
2018-Jun-15 11:00N 62°06' E 007°11'0 0.0
2018-Jun-15 10:30N 62°06' E 007°11'0 0.0
2018-Jun-15 10:00N 62°06' E 007°11'3 6.0
2018-Jun-15 09:30N 62°06' E 007°05'4 8.4
2018-Jun-15 08:59N 62°09' E 006°59'612.1
2018-Jun-15 08:29N 62°15' E 007°01'611.9
2018-Jun-15 08:00N 62°20' E 006°57'611.9
2018-Jun-15 07:30N 62°26' E 006°53'612.6
2018-Jun-15 07:00N 62°27' E 006°39'713.8
2018-Jun-15 06:30N 62°25' E 006°25'714.3
2018-Jun-15 06:00N 62°23' E 006°10'612.4
2018-Jun-15 05:30N 62°27' E 005°59'510.4
2018-Jun-15 04:59N 62°27' E 005°48'510.3
2018-Jun-15 04:30N 62°27' E 005°37'611.1
2018-Jun-15 04:00N 62°26' E 005°25'612.9
2018-Jun-15 03:30N 62°24' E 005°12'713.8
2018-Jun-15 03:00N 62°22' E 004°57'29310.1
2018-Jun-13 21:49N 59°02' W 002°21'411.9
2018-Jun-13 21:30N 59°00' W 002°28'611.2
2018-Jun-13 21:00N 58°60' W 002°38'611.8
2018-Jun-13 20:30N 59°01' W 002°50'4 8.9
2018-Jun-13 20:00N 59°00' W 002°58'0 0.2
2018-Jun-13 19:29N 59°00' W 002°59'0 0.0
2018-Jun-13 18:59N 59°00' W 002°59'0 0.0
2018-Jun-13 18:29N 59°00' W 002°59'0 0.0
2018-Jun-13 17:59N 59°00' W 002°59'0 0.0
2018-Jun-13 17:29N 59°00' W 002°59'0 0.0
2018-Jun-13 16:59N 59°00' W 002°59'0 0.0
2018-Jun-13 16:29N 59°00' W 002°59'0 0.0
2018-Jun-13 15:59N 59°00' W 002°59'0 0.0
2018-Jun-13 15:29N 59°00' W 002°59'0 0.0
2018-Jun-13 14:59N 59°00' W 002°59'0 0.0
2018-Jun-13 14:29N 59°00' W 002°59'0 0.0
2018-Jun-13 13:47N 59°00' W 002°59'0 0.0
2018-Jun-13 13:29N 59°00' W 002°59'0 0.0
2018-Jun-13 12:59N 59°00' W 002°59'0 0.0
2018-Jun-13 12:29N 59°00' W 002°59'0 0.0
2018-Jun-13 11:59N 59°00' W 002°59'0 0.0
2018-Jun-13 11:29N 59°00' W 002°59'0 0.5
2018-Jun-13 11:00N 59°00' W 002°58'4 7.1
2018-Jun-13 10:30N 59°01' W 002°51'611.6
2018-Jun-13 10:00N 58°60' W 002°40'9016.2
2018-Jun-13 04:29N 57°37' W 001°35'919.0
2018-Jun-13 04:00N 57°28' W 001°35'1418.6
2018-Jun-13 03:15N 57°14' W 001°40'518.0
2018-Jun-13 03:00N 57°10' W 001°42'917.8
2018-Jun-13 02:30N 57°01' W 001°46'6315.3
2018-Jun-12 22:23N 56°07' W 002°46'615.9
2018-Jun-12 22:00N 56°05' W 002°56'713.6
2018-Jun-12 21:31N 56°02' W 003°06'4 7.1
2018-Jun-12 21:00N 55°59' W 003°11'0 0.1
2018-Jun-12 20:30N 55°59' W 003°11'0 0.0
2018-Jun-12 20:00N 55°59' W 003°11'0 0.0
2018-Jun-11 11:22N 55°59' W 003°11'0 0.9
2018-Jun-11 10:56N 55°59' W 003°11'0 0.1
2018-Jun-11 10:22N 55°59' W 003°11'1 2.4
2018-Jun-11 09:57N 56°00' W 003°12'1 2.1
2018-Jun-11 09:30N 56°01' W 003°10'2 4.4
2018-Jun-11 09:00N 56°01' W 003°06'5 9.7
2018-Jun-11 08:30N 56°04' W 002°59'611.8
2018-Jun-11 08:00N 56°06' W 002°50'612.5
2018-Jun-11 07:30N 56°07' W 002°39'612.8
2018-Jun-11 07:00N 56°10' W 002°28'5212.5
2018-Jun-11 02:48N 56°57' W 001°47'413.7
2018-Jun-11 02:30N 57°01' W 001°46'713.5
2018-Jun-11 02:00N 57°08' W 001°43'714.3
2018-Jun-11 01:30N 57°14' W 001°40'1215.1
2018-Jun-11 00:44N 57°26' W 001°36'415.8
2018-Jun-11 00:30N 57°29' W 001°36'9514.6
2018-Jun-10 17:59N 58°59' W 002°36'816.3
2018-Jun-10 17:30N 59°01' W 002°51'4 7.8
2018-Jun-10 17:00N 59°00' W 002°58'0 0.0
2018-Jun-10 16:29N 59°00' W 002°59'0 0.0
2018-Jun-10 15:59N 59°00' W 002°59'0 0.0
2018-Jun-10 15:29N 59°00' W 002°59'0 0.0
2018-Jun-10 14:59N 59°00' W 002°59'0 0.0
2018-Jun-10 14:29N 59°00' W 002°59'0 0.0
2018-Jun-10 13:29N 59°00' W 002°59'0 0.0
2018-Jun-10 12:59N 59°00' W 002°59'0 0.0
2018-Jun-10 12:29N 59°00' W 002°58'0 0.0
2018-Jun-10 11:59N 59°00' W 002°58'0 0.0
2018-Jun-10 11:29N 59°00' W 002°58'0 0.0
2018-Jun-10 10:59N 59°00' W 002°58'0 0.0
2018-Jun-10 10:29N 59°00' W 002°58'0 0.0
2018-Jun-10 09:59N 59°00' W 002°59'0 0.0
2018-Jun-10 09:29N 59°00' W 002°58'0 0.0
2018-Jun-10 08:59N 59°00' W 002°58'0 0.0
2018-Jun-10 08:29N 59°00' W 002°58'0 0.0
2018-Jun-10 07:59N 59°00' W 002°58'0 0.5
2018-Jun-10 07:29N 59°00' W 002°59'3 6.5
2018-Jun-10 07:00N 59°01' W 002°53'510.8
2018-Jun-10 06:30N 58°60' W 002°42'5 9.0
2018-Jun-10 06:00N 58°58' W 002°34'810.5
2018-Jun-10 05:17N 58°51' W 002°39'913.8
2018-Jun-10 04:37N 58°43' W 002°48'215.1
2018-Jun-10 04:30N 58°42' W 002°51'917.3
2018-Jun-10 04:00N 58°43' W 003°08'915.6
2018-Jun-10 03:27N 58°43' W 003°24'6012.7
2018-Jun-09 22:41N 58°32' W 005°18'  

Dump ship's entire track history